Time;durP1;ratioP1;P1;durP2;ratioP2;P2;SDS_P1;SDS_P2;PMS_P1;PMS_P2;Temp;Humidity;BMP_temperature;BMP_pressure;BME280_temperature;BME280_humidity;BME280_pressure;Samples;Min_cycle;Max_cycle;Signal;HPM_P1;HPM_P2
2023/08/23 00:00:24;;;;;;;7.72;5.25;;;17.20;99.90;;;;;;5093339;28;20222;-79
2023/08/23 00:02:51;;;;;;;7.47;4.88;;;17.50;99.90;;;;;;5102022;28;20206;-79
2023/08/23 00:05:19;;;;;;;6.63;4.25;;;17.50;99.90;;;;;;5108090;28;20194;-79
2023/08/23 00:07:45;;;;;;;5.82;5.05;;;17.50;99.90;;;;;;5104984;28;20197;-79
2023/08/23 00:10:12;;;;;;;5.95;5.05;;;17.40;99.90;;;;;;5116316;28;20303;-80
2023/08/23 00:12:39;;;;;;;7.43;4.45;;;17.30;99.90;;;;;;5112518;28;20210;-80
2023/08/23 00:15:07;;;;;;;9.95;4.93;;;17.30;99.90;;;;;;5114642;28;20264;-80
2023/08/23 00:17:34;;;;;;;6.85;4.65;;;17.30;99.90;;;;;;5110154;28;20221;-79
2023/08/23 00:20:01;;;;;;;7.40;4.80;;;17.30;99.90;;;;;;5117626;28;20225;-79
2023/08/23 00:22:29;;;;;;;7.13;4.97;;;17.20;99.90;;;;;;5102919;28;20201;-80
2023/08/23 00:24:56;;;;;;;6.10;4.10;;;17.20;99.90;;;;;;5111547;28;20198;-80
2023/08/23 00:27:22;;;;;;;12.02;5.07;;;17.20;99.90;;;;;;5111103;28;20197;-79
2023/08/23 00:29:49;;;;;;;10.60;5.40;;;17.20;99.90;;;;;;5118316;28;20225;-78
2023/08/23 00:32:16;;;;;;;6.60;4.78;;;17.20;99.90;;;;;;5116940;28;20555;-80
2023/08/23 00:34:43;;;;;;;10.65;5.30;;;17.10;99.90;;;;;;5105648;28;20211;-79
2023/08/23 00:37:09;;;;;;;7.70;4.97;;;17.10;99.90;;;;;;5101389;28;20241;-79
2023/08/23 00:39:37;;;;;;;10.65;5.13;;;17.10;99.90;;;;;;5110566;28;20296;-79
2023/08/23 00:42:05;;;;;;;6.32;4.88;;;17.20;99.90;;;;;;5113462;28;20196;-79
2023/08/23 00:44:31;;;;;;;9.85;4.55;;;17.20;99.90;;;;;;5114207;28;20206;-78
2023/08/23 00:46:59;;;;;;;6.95;5.47;;;17.00;99.90;;;;;;5111021;28;20199;-79
2023/08/23 00:49:33;;;;;;;5.30;4.32;;;17.10;99.90;;;;;;5113144;28;20231;-80
2023/08/23 00:52:01;;;;;;;7.05;4.88;;;17.10;99.90;;;;;;5097355;28;20216;-80
2023/08/23 00:54:28;;;;;;;7.82;4.80;;;17.10;99.90;;;;;;5101259;28;20208;-79
2023/08/23 00:56:57;;;;;;;5.88;4.90;;;17.00;99.90;;;;;;5099129;28;20294;-79
2023/08/23 00:59:24;;;;;;;7.20;4.32;;;16.90;99.90;;;;;;5113592;28;20724;-79
2023/08/23 01:01:51;;;;;;;9.50;5.10;;;17.00;99.90;;;;;;5106840;28;20213;-79
2023/08/23 01:04:18;;;;;;;7.28;4.30;;;16.90;99.90;;;;;;5105434;28;20198;-79
2023/08/23 01:06:55;;;;;;;9.75;5.07;;;16.90;99.90;;;;;;5111446;28;20198;-79
2023/08/23 01:09:32;;;;;;;6.13;4.93;;;17.00;99.90;;;;;;5104392;28;20705;-79
2023/08/23 01:12:08;;;;;;;6.95;4.80;;;16.90;99.90;;;;;;5113601;28;20231;-79
2023/08/23 01:14:49;;;;;;;7.50;5.30;;;16.90;99.90;;;;;;5108964;28;20206;-78
2023/08/23 01:17:19;;;;;;;7.28;4.57;;;16.80;99.90;;;;;;5108865;28;20228;-79
2023/08/23 01:19:48;;;;;;;8.45;5.32;;;16.70;99.90;;;;;;5116645;28;20652;-79
2023/08/23 01:22:19;;;;;;;7.70;5.07;;;16.70;99.90;;;;;;5102809;28;20616;-79
2023/08/23 01:24:48;;;;;;;9.65;4.85;;;16.70;99.90;;;;;;5110048;28;20204;-79
2023/08/23 01:27:16;;;;;;;8.85;5.20;;;16.60;99.90;;;;;;5102975;28;20208;-79
2023/08/23 01:29:44;;;;;;;8.50;4.75;;;16.80;99.90;;;;;;5111584;28;20718;-78
2023/08/23 01:32:31;;;;;;;7.28;4.75;;;16.70;99.90;;;;;;5100818;28;20197;-79
2023/08/23 01:35:03;;;;;;;8.15;5.50;;;16.80;99.90;;;;;;5109341;28;20209;-79
2023/08/23 01:37:31;;;;;;;9.93;4.88;;;16.90;99.90;;;;;;5100055;28;20717;-78
2023/08/23 01:40:02;;;;;;;6.82;4.72;;;16.70;99.90;;;;;;5107105;28;20225;-79
2023/08/23 01:42:29;;;;;;;7.30;5.05;;;16.50;99.90;;;;;;5105353;28;20206;-80
2023/08/23 01:44:57;;;;;;;6.25;4.90;;;16.60;99.90;;;;;;5111633;28;20197;-79
2023/08/23 01:47:24;;;;;;;6.78;4.70;;;16.40;99.90;;;;;;5113926;28;20193;-78
2023/08/23 01:49:51;;;;;;;8.25;5.30;;;16.40;99.90;;;;;;5108621;28;20225;-78
2023/08/23 01:52:17;;;;;;;8.77;5.50;;;16.40;99.90;;;;;;5109409;28;20209;-79
2023/08/23 01:54:44;;;;;;;7.75;5.43;;;16.60;99.90;;;;;;5101007;28;20204;-79
2023/08/23 01:57:13;;;;;;;7.38;4.88;;;16.60;99.90;;;;;;5112786;28;20217;-79
2023/08/23 01:59:40;;;;;;;8.48;5.60;;;16.50;99.90;;;;;;5100031;28;20716;-79
2023/08/23 02:02:07;;;;;;;8.85;5.68;;;16.40;99.90;;;;;;5100924;28;20201;-79
2023/08/23 02:04:34;;;;;;;8.20;5.60;;;16.30;99.90;;;;;;5108387;28;20280;-79
2023/08/23 02:07:01;;;;;;;8.43;5.85;;;16.20;99.90;;;;;;5111128;28;20229;-79
2023/08/23 02:09:28;;;;;;;7.35;5.85;;;16.30;99.90;;;;;;5111615;28;20216;-79
2023/08/23 02:11:55;;;;;;;8.77;5.35;;;16.30;99.90;;;;;;5112510;28;20263;-79
2023/08/23 02:14:23;;;;;;;8.45;5.53;;;16.20;99.90;;;;;;5106761;28;20269;-79
2023/08/23 02:16:49;;;;;;;7.50;5.78;;;16.10;99.90;;;;;;5099355;28;20222;-78
2023/08/23 02:19:16;;;;;;;7.88;6.25;;;16.10;99.90;;;;;;5107569;28;20221;-79
2023/08/23 02:21:43;;;;;;;7.38;6.20;;;16.10;99.90;;;;;;5108086;28;20292;-79
2023/08/23 02:24:10;;;;;;;9.43;6.00;;;16.00;99.90;;;;;;5108691;28;20204;-79
2023/08/23 02:26:36;;;;;;;8.75;6.13;;;16.10;99.90;;;;;;5108634;28;20569;-79
2023/08/23 02:29:04;;;;;;;6.30;5.60;;;16.10;99.90;;;;;;5109959;28;20221;-78
2023/08/23 02:31:32;;;;;;;8.75;5.60;;;16.10;99.90;;;;;;5110037;28;20200;-79
2023/08/23 02:33:59;;;;;;;10.45;6.10;;;16.10;99.90;;;;;;5109525;28;20199;-82
2023/08/23 02:36:26;;;;;;;6.78;5.57;;;16.00;99.90;;;;;;5106291;28;20252;-79
2023/08/23 02:38:52;;;;;;;9.75;7.18;;;16.10;99.90;;;;;;5101243;28;20294;-79
2023/08/23 02:41:19;;;;;;;26.20;13.48;;;16.10;99.90;;;;;;5111733;28;20197;-79
2023/08/23 02:43:46;;;;;;;12.15;7.97;;;16.10;99.90;;;;;;5097325;28;20197;-79
2023/08/23 02:46:13;;;;;;;8.52;6.25;;;16.00;99.90;;;;;;5111566;28;20199;-79
2023/08/23 02:48:41;;;;;;;11.35;6.00;;;16.00;99.90;;;;;;5110795;28;20227;-79
2023/08/23 02:51:08;;;;;;;9.38;5.43;;;16.10;99.90;;;;;;5106923;28;20881;-78
2023/08/23 02:53:35;;;;;;;8.35;6.25;;;16.20;99.90;;;;;;5112883;28;20287;-80
2023/08/23 02:56:01;;;;;;;8.60;6.03;;;16.20;99.90;;;;;;5108822;28;20264;-79
2023/08/23 02:58:28;;;;;;;11.60;5.90;;;16.20;99.90;;;;;;5112597;28;20213;-79
2023/08/23 03:00:55;;;;;;;7.50;6.00;;;16.20;99.90;;;;;;5105728;28;20292;-79
2023/08/23 03:03:22;;;;;;;7.22;5.70;;;16.10;99.90;;;;;;5106837;28;20201;-79
2023/08/23 03:05:56;;;;;;;10.93;6.45;;;16.10;99.90;;;;;;5110355;28;20273;-79
2023/08/23 03:08:23;;;;;;;9.85;6.38;;;16.00;99.90;;;;;;5107757;28;20590;-79
2023/08/23 03:10:50;;;;;;;9.43;6.32;;;15.90;99.90;;;;;;5113343;28;20765;-78
2023/08/23 03:13:17;;;;;;;12.18;6.18;;;15.90;99.90;;;;;;5111006;28;20656;-78
2023/08/23 03:15:44;;;;;;;7.88;6.43;;;15.80;99.90;;;;;;5109988;28;20197;-79
2023/08/23 03:18:11;;;;;;;8.68;6.65;;;15.70;99.90;;;;;;5108405;28;20216;-79
2023/08/23 03:20:38;;;;;;;8.45;6.30;;;15.80;99.90;;;;;;5112799;28;20220;-79
2023/08/23 03:23:06;;;;;;;10.40;6.80;;;15.60;99.90;;;;;;5107146;28;20212;-79
2023/08/23 03:25:34;;;;;;;10.10;6.88;;;15.70;99.90;;;;;;5101448;28;20192;-78
2023/08/23 03:28:01;;;;;;;16.88;10.57;;;15.70;99.90;;;;;;5106184;28;20239;-79
2023/08/23 03:30:28;;;;;;;16.50;8.90;;;15.70;99.90;;;;;;5118442;28;20228;-78
2023/08/23 03:32:55;;;;;;;9.82;7.07;;;15.70;99.90;;;;;;5103263;28;20577;-79
2023/08/23 03:35:21;;;;;;;10.48;6.75;;;15.60;99.90;;;;;;5108542;28;20284;-79
2023/08/23 03:37:48;;;;;;;7.15;6.43;;;15.50;99.90;;;;;;5113353;28;20221;-80
2023/08/23 03:40:16;;;;;;;8.73;6.45;;;15.60;99.90;;;;;;5099960;28;20216;-80
2023/08/23 03:42:43;;;;;;;12.07;6.70;;;15.50;99.90;;;;;;5117682;28;20202;-79
2023/08/23 03:45:11;;;;;;;8.85;6.40;;;15.60;99.90;;;;;;5107907;28;20306;-79
2023/08/23 03:47:38;;;;;;;9.75;6.63;;;15.50;99.90;;;;;;5110918;28;20197;-79
2023/08/23 03:50:05;;;;;;;11.27;6.80;;;15.50;99.90;;;;;;5105291;28;20301;-79
2023/08/23 03:52:32;;;;;;;10.15;7.10;;;15.50;99.90;;;;;;5099502;28;20285;-79
2023/08/23 03:54:59;;;;;;;11.45;6.97;;;15.60;99.90;;;;;;5099961;28;20212;-80
2023/08/23 03:57:27;;;;;;;10.48;6.75;;;15.60;99.90;;;;;;5104495;28;20213;-79
2023/08/23 03:59:53;;;;;;;9.10;6.43;;;15.60;99.90;;;;;;5099026;28;20221;-79
2023/08/23 04:02:21;;;;;;;9.40;6.40;;;15.50;99.90;;;;;;5105442;28;20193;-79
2023/08/23 04:04:49;;;;;;;12.27;6.57;;;15.50;99.90;;;;;;5112359;28;20201;-79
2023/08/23 04:07:17;;;;;;;10.00;6.88;;;15.40;99.90;;;;;;5104347;28;20202;-79
2023/08/23 04:09:44;;;;;;;8.90;6.32;;;15.40;99.90;;;;;;5102718;28;20217;-80
2023/08/23 04:12:10;;;;;;;9.80;6.65;;;15.40;99.90;;;;;;5113028;28;20205;-79
2023/08/23 04:14:39;;;;;;;11.32;6.30;;;15.50;99.90;;;;;;5101455;28;20726;-79
2023/08/23 04:17:06;;;;;;;7.07;6.38;;;15.40;99.90;;;;;;5111082;28;20222;-80
2023/08/23 04:19:32;;;;;;;9.00;6.47;;;15.40;99.90;;;;;;5099898;28;20224;-80
2023/08/23 04:21:59;;;;;;;7.75;6.32;;;15.40;99.90;;;;;;5105110;28;20212;-79
2023/08/23 04:24:26;;;;;;;11.23;6.72;;;15.40;99.90;;;;;;5102916;28;20205;-80
2023/08/23 04:26:53;;;;;;;8.00;6.63;;;15.40;99.90;;;;;;5114618;28;20721;-80
2023/08/23 04:29:19;;;;;;;11.13;6.97;;;15.40;99.90;;;;;;5098723;28;20744;-79
2023/08/23 04:31:48;;;;;;;9.75;6.70;;;15.30;99.90;;;;;;5123626;28;20207;-79
2023/08/23 04:34:15;;;;;;;9.88;6.53;;;15.30;99.90;;;;;;5108148;28;22393;-80
2023/08/23 04:36:41;;;;;;;9.05;6.13;;;15.40;99.90;;;;;;5100662;28;20212;-80
2023/08/23 04:39:08;;;;;;;10.88;6.35;;;15.50;99.90;;;;;;5105728;28;20293;-80
2023/08/23 04:41:36;;;;;;;9.48;7.00;;;15.60;99.90;;;;;;5113434;28;20206;-80
2023/08/23 04:44:04;;;;;;;8.48;6.32;;;15.40;99.90;;;;;;5108975;28;20202;-80
2023/08/23 04:46:31;;;;;;;9.73;6.03;;;15.40;99.90;;;;;;5118721;28;20658;-80
2023/08/23 04:49:00;;;;;;;7.70;5.80;;;15.40;99.90;;;;;;5126666;28;20245;-80
2023/08/23 04:51:27;;;;;;;7.60;5.78;;;15.50;99.90;;;;;;5105035;28;20224;-80
2023/08/23 04:53:54;;;;;;;9.55;7.00;;;15.60;99.90;;;;;;5095882;28;20213;-80
2023/08/23 04:56:22;;;;;;;9.95;6.28;;;15.70;99.90;;;;;;5098205;28;20198;-80
2023/08/23 04:58:49;;;;;;;7.90;5.95;;;15.70;99.90;;;;;;5104020;28;20235;-80
2023/08/23 05:01:16;;;;;;;8.38;6.30;;;15.70;99.90;;;;;;5108262;28;20216;-80
2023/08/23 05:03:43;;;;;;;11.35;6.03;;;15.70;99.90;;;;;;5112500;28;20260;-79
2023/08/23 05:06:12;;;;;;;9.55;6.18;;;15.60;99.90;;;;;;5122857;28;20209;-79
2023/08/23 05:08:39;;;;;;;8.65;6.22;;;15.60;99.90;;;;;;5116560;28;20640;-80
2023/08/23 05:11:08;;;;;;;9.07;6.20;;;15.60;99.90;;;;;;5124678;28;20232;-81
2023/08/23 05:13:36;;;;;;;10.02;6.40;;;15.70;99.90;;;;;;5091427;28;20206;-79
2023/08/23 05:16:03;;;;;;;9.90;6.18;;;15.80;99.90;;;;;;5115896;28;20205;-80
2023/08/23 05:18:30;;;;;;;10.45;6.05;;;15.80;99.90;;;;;;5116485;28;20713;-80
2023/08/23 05:20:59;;;;;;;10.40;6.22;;;15.80;99.90;;;;;;5116989;28;20206;-79
2023/08/23 05:23:33;;;;;;;7.97;6.00;;;15.70;99.90;;;;;;5114377;28;20209;-80
2023/08/23 05:26:03;;;;;;;9.65;6.45;;;15.70;99.90;;;;;;5093100;28;20696;-79
2023/08/23 05:28:32;;;;;;;17.98;7.60;;;15.70;99.90;;;;;;5093862;28;20212;-79
2023/08/23 05:31:02;;;;;;;8.80;6.40;;;15.70;99.90;;;;;;5105813;28;20217;-79
2023/08/23 05:33:33;;;;;;;9.05;6.72;;;15.60;99.90;;;;;;5111344;28;20220;-83
2023/08/23 05:36:02;;;;;;;7.95;6.35;;;15.80;99.90;;;;;;5102127;28;20225;-81
2023/08/23 05:38:30;;;;;;;8.48;6.57;;;15.80;99.90;;;;;;5097196;28;20218;-81
2023/08/23 05:40:57;;;;;;;9.13;6.97;;;15.90;99.90;;;;;;5098471;28;20254;-82
2023/08/23 05:43:25;;;;;;;9.95;6.78;;;15.90;99.90;;;;;;5097232;28;20213;-82
2023/08/23 06:00:35;;;;;;;11.35;7.50;;;16.30;99.90;;;;;;4985764;28;20228;-82
2023/08/23 06:03:36;;;;;;;9.60;7.25;;;16.30;99.90;;;;;;5006135;28;20201;-81
2023/08/23 06:06:04;;;;;;;11.43;7.40;;;16.50;99.90;;;;;;5054387;28;20285;-81
2023/08/23 06:08:31;;;;;;;9.13;7.32;;;16.50;99.90;;;;;;5053891;28;20685;-81
2023/08/23 06:11:05;;;;;;;10.27;7.82;;;16.60;99.90;;;;;;5090978;28;20210;-80
2023/08/23 06:13:33;;;;;;;11.40;8.60;;;16.50;99.90;;;;;;5103959;28;20217;-79
2023/08/23 06:16:01;;;;;;;12.43;8.27;;;16.70;99.90;;;;;;5096611;28;20228;-79
2023/08/23 06:18:28;;;;;;;12.18;8.20;;;16.80;99.90;;;;;;5093005;28;20218;-79
2023/08/23 06:20:54;;;;;;;14.10;8.80;;;16.90;99.90;;;;;;5094136;28;20229;-80
2023/08/23 06:23:21;;;;;;;11.70;8.13;;;17.00;99.90;;;;;;5088592;28;20280;-80
2023/08/23 06:25:48;;;;;;;13.68;8.68;;;17.10;99.90;;;;;;5084111;28;20290;-80
2023/08/23 06:28:15;;;;;;;11.30;8.82;;;17.20;99.90;;;;;;5070414;28;20198;-80
2023/08/23 06:30:42;;;;;;;16.17;9.35;;;17.40;99.90;;;;;;5100243;28;20280;-81
2023/08/23 06:33:54;;;;;;;15.35;9.10;;;17.60;99.90;;;;;;5098283;28;20280;-81
2023/08/23 06:36:22;;;;;;;14.95;9.25;;;18.30;99.90;;;;;;5089152;28;20197;-79
2023/08/23 06:38:49;;;;;;;12.55;8.75;;;18.40;99.90;;;;;;5098098;28;20305;-79
2023/08/23 06:41:16;;;;;;;14.32;8.70;;;18.00;99.90;;;;;;5093717;28;20197;-81
2023/08/23 06:43:44;;;;;;;14.52;8.68;;;18.00;99.90;;;;;;5088144;28;20202;-78
2023/08/23 06:46:11;;;;;;;13.80;9.07;;;18.10;99.90;;;;;;5095648;28;20194;-80
2023/08/23 06:48:38;;;;;;;13.73;8.82;;;18.10;99.90;;;;;;5091550;28;20201;-79
2023/08/23 06:51:04;;;;;;;16.60;10.38;;;18.10;99.90;;;;;;5086995;28;20210;-80
2023/08/23 06:53:33;;;;;;;15.25;10.02;;;18.10;99.90;;;;;;5099050;28;20198;-79
2023/08/23 06:56:00;;;;;;;12.32;9.27;;;18.40;99.90;;;;;;5098813;28;20201;-79
2023/08/23 06:58:26;;;;;;;14.85;10.05;;;18.40;99.90;;;;;;5091075;28;20722;-80
2023/08/23 07:00:56;;;;;;;12.93;9.57;;;18.50;99.90;;;;;;5084639;28;20787;-79
2023/08/23 07:03:23;;;;;;;13.90;10.32;;;18.70;99.90;;;;;;5085720;28;20216;-80
2023/08/23 07:05:49;;;;;;;14.45;10.10;;;18.80;99.90;;;;;;5099543;28;20208;-80
2023/08/23 07:08:17;;;;;;;14.88;10.10;;;18.90;99.90;;;;;;5083027;28;20216;-79
2023/08/23 07:10:45;;;;;;;16.60;9.35;;;18.80;99.90;;;;;;5092828;28;20249;-79
2023/08/23 07:13:12;;;;;;;13.20;9.15;;;18.90;99.90;;;;;;5096444;28;20217;-78
2023/08/23 07:15:40;;;;;;;13.25;9.85;;;19.00;99.90;;;;;;5092768;28;20715;-80
2023/08/23 07:18:07;;;;;;;16.67;10.15;;;19.10;99.90;;;;;;5094958;28;20225;-80
2023/08/23 07:20:35;;;;;;;14.75;9.38;;;19.00;99.90;;;;;;5091638;28;20312;-79
2023/08/23 07:23:01;;;;;;;17.85;9.68;;;19.10;99.90;;;;;;5089329;28;20232;-79
2023/08/23 07:25:28;;;;;;;12.20;8.30;;;19.10;99.90;;;;;;5093861;28;20204;-80
2023/08/23 07:27:56;;;;;;;14.95;9.48;;;19.20;99.90;;;;;;5100987;28;20200;-79
2023/08/23 07:30:23;;;;;;;15.27;9.50;;;19.30;99.90;;;;;;5088762;28;20222;-79
2023/08/23 07:32:50;;;;;;;10.82;8.32;;;19.30;99.90;;;;;;5097890;28;20647;-80
2023/08/23 07:35:17;;;;;;;11.63;8.55;;;19.30;99.90;;;;;;5092582;28;20217;-79
2023/08/23 07:37:44;;;;;;;17.20;8.63;;;19.30;99.90;;;;;;5094452;28;20214;-79
2023/08/23 07:40:11;;;;;;;12.82;8.02;;;19.30;99.90;;;;;;5100678;28;20228;-80
2023/08/23 07:42:38;;;;;;;12.57;9.13;;;19.30;99.90;;;;;;5100762;28;20202;-81
2023/08/23 07:45:07;;;;;;;16.30;9.63;;;19.10;99.90;;;;;;5084762;28;20202;-80
2023/08/23 07:47:34;;;;;;;10.85;8.63;;;19.10;99.90;;;;;;5079750;28;20209;-80
2023/08/23 07:50:02;;;;;;;16.10;10.63;;;19.30;99.90;;;;;;5088806;28;20223;-80
2023/08/23 07:52:28;;;;;;;14.60;9.73;;;19.40;99.90;;;;;;5086477;28;20266;-80
2023/08/23 07:54:55;;;;;;;13.60;9.82;;;19.40;99.90;;;;;;5094851;28;20290;-81
2023/08/23 07:57:22;;;;;;;16.48;10.18;;;19.40;99.90;;;;;;5104284;28;20197;-80
2023/08/23 07:59:49;;;;;;;13.75;10.25;;;19.50;99.90;;;;;;5102923;28;20604;-79
2023/08/23 08:02:18;;;;;;;19.92;10.70;;;19.50;99.90;;;;;;5104117;28;20198;-79
2023/08/23 08:04:46;;;;;;;15.70;11.57;;;19.70;99.90;;;;;;5103926;28;20212;-79
2023/08/23 08:07:13;;;;;;;15.00;11.20;;;19.60;99.90;;;;;;5092536;28;20579;-79
2023/08/23 08:09:40;;;;;;;18.90;11.60;;;19.70;99.90;;;;;;5083104;28;20698;-79
2023/08/23 08:12:07;;;;;;;20.42;12.18;;;19.90;99.90;;;;;;5082238;28;20209;-80
2023/08/23 08:14:34;;;;;;;17.27;11.30;;;19.80;99.90;;;;;;5096413;28;20669;-81
2023/08/23 08:17:01;;;;;;;15.15;10.63;;;20.00;99.90;;;;;;5083480;28;20226;-80
2023/08/23 08:19:29;;;;;;;16.65;10.70;;;20.10;99.90;;;;;;5084534;28;20305;-80
2023/08/23 08:21:56;;;;;;;15.05;9.95;;;20.10;99.90;;;;;;5083064;28;20698;-80
2023/08/23 08:24:23;;;;;;;15.02;9.80;;;20.20;99.90;;;;;;5083855;28;20231;-79
2023/08/23 08:26:50;;;;;;;16.27;10.45;;;20.20;99.90;;;;;;5096849;28;20206;-79
2023/08/23 08:29:16;;;;;;;16.35;10.02;;;20.30;99.90;;;;;;5082310;28;20224;-79
2023/08/23 08:31:43;;;;;;;15.10;9.70;;;20.40;99.90;;;;;;5083729;28;20217;-79
2023/08/23 08:34:10;;;;;;;15.05;11.27;;;20.40;99.90;;;;;;5083389;28;20206;-80
2023/08/23 08:36:40;;;;;;;12.52;9.85;;;20.40;99.90;;;;;;5085379;28;20198;-80
2023/08/23 08:39:07;;;;;;;15.05;10.70;;;20.60;99.90;;;;;;5091482;28;20230;-81
2023/08/23 08:41:34;;;;;;;17.13;9.60;;;20.60;99.90;;;;;;5104592;28;20265;-79
2023/08/23 08:44:02;;;;;;;15.63;10.18;;;20.70;99.90;;;;;;5105692;28;20209;-79
2023/08/23 08:46:29;;;;;;;14.88;10.13;;;20.90;99.90;;;;;;5093513;28;20229;-80
2023/08/23 08:48:56;;;;;;;15.93;10.25;;;20.90;99.90;;;;;;5090135;28;20217;-78
2023/08/23 08:51:23;;;;;;;16.80;10.13;;;21.00;99.90;;;;;;5103480;28;20210;-79
2023/08/23 08:53:52;;;;;;;13.43;10.15;;;21.10;99.90;;;;;;5105010;28;20194;-80
2023/08/23 08:56:20;;;;;;;15.73;11.60;;;21.20;99.90;;;;;;5103870;28;20190;-80
2023/08/23 08:58:47;;;;;;;14.65;10.07;;;21.10;99.90;;;;;;5083159;28;20556;-81
2023/08/23 09:01:15;;;;;;;14.10;10.50;;;21.30;99.90;;;;;;5084727;28;20205;-79
2023/08/23 09:03:42;;;;;;;13.57;8.95;;;21.40;99.90;;;;;;5083993;28;20237;-80
2023/08/23 09:06:10;;;;;;;15.60;10.15;;;21.60;99.90;;;;;;5101725;28;20585;-80
2023/08/23 09:08:37;;;;;;;15.25;9.38;;;21.50;99.90;;;;;;5100701;28;20684;-80
2023/08/23 09:11:05;;;;;;;13.23;8.73;;;21.60;99.90;;;;;;5094991;28;20199;-80
2023/08/23 09:13:32;;;;;;;11.85;8.20;;;21.70;99.90;;;;;;5093616;28;20224;-80
2023/08/23 09:15:59;;;;;;;12.35;6.95;;;22.30;99.90;;;;;;5102237;28;20206;-79
2023/08/23 09:18:26;;;;;;;12.70;7.47;;;22.90;99.90;;;;;;5098472;28;20212;-79
2023/08/23 09:20:53;;;;;;;12.27;7.40;;;22.80;99.90;;;;;;5093464;28;20233;-79
2023/08/23 09:23:20;;;;;;;11.48;7.70;;;23.20;99.90;;;;;;5095138;28;20201;-80
2023/08/23 09:25:48;;;;;;;11.13;7.90;;;23.60;99.90;;;;;;5093411;28;20215;-78
2023/08/23 09:28:16;;;;;;;14.13;9.05;;;23.60;99.90;;;;;;5097462;28;20209;-79
2023/08/23 09:30:48;;;;;;;10.85;7.57;;;24.00;99.90;;;;;;5122752;28;20212;-77
2023/08/23 09:33:15;;;;;;;13.27;7.03;;;24.50;99.90;;;;;;5107508;28;20841;-77
2023/08/23 09:35:48;;;;;;;11.10;7.85;;;24.80;99.90;;;;;;5097132;28;20204;-79
2023/08/23 09:38:18;;;;;;;12.93;6.40;;;24.40;99.90;;;;;;5089519;28;20248;-83
2023/08/23 09:40:46;;;;;;;11.10;6.50;;;25.10;99.90;;;;;;5076906;28;20232;-83
2023/08/23 09:43:16;;;;;;;8.00;6.35;;;25.10;99.90;;;;;;5078203;28;20198;-82
2023/08/23 09:45:44;;;;;;;11.10;6.70;;;25.70;99.90;;;;;;5076523;28;20202;-82
2023/08/23 09:48:12;;;;;;;11.77;6.40;;;25.70;99.90;;;;;;5081140;28;20193;-82
2023/08/23 09:50:39;;;;;;;14.73;6.93;;;24.80;99.90;;;;;;5096963;28;20567;-82
2023/08/23 09:53:11;;;;;;;9.98;5.97;;;24.10;99.90;;;;;;5088387;28;20212;-82
2023/08/23 09:55:40;;;;;;;10.35;6.25;;;24.20;99.90;;;;;;5095695;28;20395;-82
2023/08/23 09:58:07;;;;;;;7.15;5.88;;;25.30;99.90;;;;;;5114623;28;20230;-82
2023/08/23 10:00:36;;;;;;;6.65;5.03;;;25.10;99.90;;;;;;5117034;28;20231;-83
2023/08/23 10:03:03;;;;;;;8.48;5.07;;;25.90;99.90;;;;;;5097005;28;20243;-83
2023/08/23 10:05:30;;;;;;;7.82;5.10;;;25.90;99.90;;;;;;5096491;28;20281;-83
2023/08/23 10:07:57;;;;;;;8.38;4.65;;;25.70;99.90;;;;;;5095711;28;20207;-83
2023/08/23 10:10:25;;;;;;;8.00;5.13;;;25.70;99.90;;;;;;5096252;28;20283;-82
2023/08/23 10:12:55;;;;;;;10.48;5.93;;;26.10;99.90;;;;;;5096483;28;20216;-82
2023/08/23 10:15:29;;;;;;;7.13;5.00;;;26.10;99.90;;;;;;5096240;28;20201;-82
2023/08/23 10:18:00;;;;;;;6.57;4.32;;;26.70;99.90;;;;;;5097126;28;20563;-82
2023/08/23 10:20:27;;;;;;;7.85;4.70;;;26.80;99.90;;;;;;5095348;28;20952;-83
2023/08/23 10:22:54;;;;;;;7.40;5.00;;;26.50;99.90;;;;;;5097513;28;20201;-82
2023/08/23 10:25:22;;;;;;;7.80;4.50;;;25.60;99.90;;;;;;5097142;28;20235;-83
2023/08/23 10:27:52;;;;;;;7.82;4.50;;;25.70;99.90;;;;;;5096636;28;20214;-82
2023/08/23 10:30:24;;;;;;;7.75;4.30;;;26.00;99.90;;;;;;5104178;28;20607;-81
2023/08/23 10:32:51;;;;;;;9.15;4.57;;;26.10;99.90;;;;;;5116586;28;20677;-82
2023/08/23 10:35:27;;;;;;;6.20;4.13;;;26.00;99.90;;;;;;5116501;28;20207;-80
2023/08/23 10:37:54;;;;;;;8.55;3.67;;;26.00;99.90;;;;;;5116064;28;20213;-83
2023/08/23 10:40:22;;;;;;;8.43;3.50;;;26.50;99.90;;;;;;5115163;28;20224;-83
2023/08/23 10:42:50;;;;;;;6.63;3.55;;;26.60;99.90;;;;;;5115377;28;20208;-82
2023/08/23 10:45:17;;;;;;;10.13;4.00;;;26.80;99.90;;;;;;5115106;28;20223;-83
2023/08/23 10:47:45;;;;;;;4.70;2.85;;;26.60;99.90;;;;;;5115994;28;20279;-83
2023/08/23 10:50:13;;;;;;;5.85;3.72;;;27.40;99.90;;;;;;5099330;28;20221;-83
2023/08/23 10:52:41;;;;;;;4.75;2.50;;;27.20;99.90;;;;;;5096225;28;20292;-82
2023/08/23 10:55:08;;;;;;;6.65;3.38;;;26.60;99.90;;;;;;5085234;28;20598;-83
2023/08/23 10:57:35;;;;;;;6.28;2.88;;;26.20;99.90;;;;;;5087019;28;20284;-83
2023/08/23 11:00:02;;;;;;;6.57;3.17;;;26.40;99.90;;;;;;5099799;28;20237;-82
2023/08/23 11:02:31;;;;;;;4.00;2.80;;;26.80;99.90;;;;;;5091868;28;20263;-84
2023/08/23 11:04:58;;;;;;;9.00;4.13;;;26.50;99.90;;;;;;5090101;28;20197;-83
2023/08/23 11:07:26;;;;;;;6.15;3.45;;;27.00;99.90;;;;;;5094320;28;20220;-83
2023/08/23 11:09:55;;;;;;;9.38;4.25;;;26.90;99.90;;;;;;5079720;28;20675;-83
2023/08/23 11:12:23;;;;;;;5.85;3.50;;;26.60;99.90;;;;;;5091098;28;20243;-83
2023/08/23 11:14:49;;;;;;;4.93;3.00;;;26.90;99.90;;;;;;5086591;28;20255;-83
2023/08/23 11:17:16;;;;;;;5.85;3.60;;;27.40;99.90;;;;;;5101999;28;20190;-83
2023/08/23 11:19:43;;;;;;;6.50;3.75;;;27.40;99.90;;;;;;5086907;28;20223;-83
2023/08/23 11:22:10;;;;;;;4.15;3.15;;;27.10;99.90;;;;;;5083801;28;20204;-84
2023/08/23 11:24:38;;;;;;;3.78;3.15;;;26.90;99.90;;;;;;5086519;28;20210;-83
2023/08/23 11:27:13;;;;;;;7.03;3.20;;;27.30;99.90;;;;;;5101521;28;20196;-84
2023/08/23 11:29:42;;;;;;;9.07;3.75;;;27.50;99.90;;;;;;5093032;28;20209;-85
2023/08/23 11:32:09;;;;;;;6.18;3.08;;;27.40;99.90;;;;;;5097098;28;20221;-83
2023/08/23 11:34:36;;;;;;;8.70;3.67;;;27.50;99.90;;;;;;5094083;28;20202;-84
2023/08/23 11:37:07;;;;;;;4.82;2.92;;;28.10;99.90;;;;;;5095771;28;20199;-81
2023/08/23 11:39:34;;;;;;;6.35;3.15;;;28.20;99.90;;;;;;5092092;28;20221;-82
2023/08/23 11:42:01;;;;;;;7.05;3.42;;;28.50;99.90;;;;;;5094817;28;20217;-85
2023/08/23 11:44:29;;;;;;;5.32;4.15;;;28.30;99.90;;;;;;5095292;28;20284;-83
2023/08/23 11:46:58;;;;;;;3.40;3.10;;;27.90;99.90;;;;;;5087980;28;20587;-84
2023/08/23 11:49:25;;;;;;;4.65;3.58;;;27.70;99.90;;;;;;5096804;28;20639;-85
2023/08/23 11:51:53;;;;;;;5.15;2.88;;;27.30;99.90;;;;;;5097262;28;20228;-84
2023/08/23 11:54:22;;;;;;;5.78;3.17;;;27.50;99.90;;;;;;5080486;28;20240;-84
2023/08/23 11:56:49;;;;;;;6.28;2.75;;;27.60;99.90;;;;;;5094126;28;20208;-84
2023/08/23 11:59:15;;;;;;;6.10;3.30;;;28.20;99.90;;;;;;5096825;28;20236;-83
2023/08/23 12:01:44;;;;;;;6.20;3.92;;;28.00;99.90;;;;;;5098696;28;20208;-83
2023/08/23 12:04:12;;;;;;;4.10;3.53;;;27.60;99.90;;;;;;5093821;28;20208;-84
2023/08/23 12:06:39;;;;;;;9.43;3.28;;;27.20;99.90;;;;;;5095392;28;20667;-81
2023/08/23 12:09:06;;;;;;;5.80;2.80;;;27.40;99.90;;;;;;5096353;28;20221;-81
2023/08/23 12:11:33;;;;;;;6.88;3.45;;;28.30;99.90;;;;;;5087634;28;20206;-81
2023/08/23 12:14:00;;;;;;;4.65;3.08;;;28.00;99.90;;;;;;5092805;28;20198;-83
2023/08/23 12:16:27;;;;;;;4.25;2.83;;;27.80;99.90;;;;;;5087840;28;20248;-84
2023/08/23 12:18:56;;;;;;;5.03;2.38;;;28.20;99.90;;;;;;5088628;28;20224;-83
2023/08/23 12:21:22;;;;;;;3.15;2.47;;;28.40;99.90;;;;;;5090708;28;20218;-83
2023/08/23 12:23:49;;;;;;;4.18;2.33;;;28.90;99.90;;;;;;5094629;28;20293;-81
2023/08/23 12:26:21;;;;;;;3.60;2.70;;;29.20;99.90;;;;;;5092458;28;20204;-82
2023/08/23 12:28:48;;;;;;;6.65;2.75;;;28.20;99.90;;;;;;5090226;28;20285;-84
2023/08/23 12:31:16;;;;;;;2.47;2.28;;;27.70;99.90;;;;;;5083332;28;20201;-83
2023/08/23 12:33:43;;;;;;;6.78;3.15;;;27.30;99.90;;;;;;5093552;28;20573;-83
2023/08/23 12:36:13;;;;;;;4.40;2.38;;;27.00;99.90;;;;;;5090948;28;20264;-82
2023/08/23 12:38:40;;;;;;;5.25;2.83;;;27.70;99.90;;;;;;5088760;28;20679;-83
2023/08/23 12:41:07;;;;;;;3.63;2.50;;;27.10;99.90;;;;;;5090160;28;20213;-83
2023/08/23 12:43:34;;;;;;;5.63;2.88;;;27.70;99.90;;;;;;5097561;28;20285;-84
2023/08/23 12:46:00;;;;;;;4.00;2.40;;;27.60;99.90;;;;;;5098430;28;20198;-82
2023/08/23 12:48:27;;;;;;;4.07;2.70;;;27.60;99.90;;;;;;5086816;28;20289;-83
2023/08/23 12:50:54;;;;;;;5.28;2.30;;;26.90;99.90;;;;;;5096669;28;20229;-82
2023/08/23 12:53:22;;;;;;;2.95;2.65;;;26.50;99.90;;;;;;5081180;28;20562;-83
2023/08/23 12:55:51;;;;;;;5.50;2.25;;;27.00;99.90;;;;;;5114885;28;20224;-82
2023/08/23 12:58:18;;;;;;;6.18;2.83;;;27.60;99.90;;;;;;5115271;28;20226;-83